sensor_id;sensor_type;location;lat;lon;timestamp;pressure;altitude;pressure_sealevel;temperature;humidity
82245;BME280;71849;50.096;14.458;2023-11-21T00:00:25;98900.44;;;12.99;59.31
82245;BME280;71849;50.096;14.458;2023-11-21T00:02:54;98903.13;;;12.94;59.40
82245;BME280;71849;50.096;14.458;2023-11-21T00:05:23;98902.97;;;13.06;59.13
82245;BME280;71849;50.096;14.458;2023-11-21T00:07:51;98896.22;;;12.87;59.50
82245;BME280;71849;50.096;14.458;2023-11-21T00:10:20;98893.09;;;13.05;59.09
82245;BME280;71849;50.096;14.458;2023-11-21T00:12:49;98900.03;;;13.12;58.84
82245;BME280;71849;50.096;14.458;2023-11-21T00:15:20;98892.41;;;12.88;59.55
82245;BME280;71849;50.096;14.458;2023-11-21T00:17:51;98898.75;;;12.93;59.42
82245;BME280;71849;50.096;14.458;2023-11-21T00:20:20;98889.00;;;13.02;59.14
82245;BME280;71849;50.096;14.458;2023-11-21T00:22:49;98893.09;;;13.05;59.14
82245;BME280;71849;50.096;14.458;2023-11-21T00:25:18;98895.59;;;12.80;59.70
82245;BME280;71849;50.096;14.458;2023-11-21T00:27:46;98904.53;;;12.70;60.03
82245;BME280;71849;50.096;14.458;2023-11-21T00:30:15;98901.13;;;12.85;59.70
82245;BME280;71849;50.096;14.458;2023-11-21T00:32:45;98899.03;;;12.92;59.49
82245;BME280;71849;50.096;14.458;2023-11-21T00:35:17;98903.13;;;12.94;59.50
82245;BME280;71849;50.096;14.458;2023-11-21T00:37:45;98904.69;;;13.12;58.76
82245;BME280;71849;50.096;14.458;2023-11-21T00:40:15;98899.75;;;13.09;58.81
82245;BME280;71849;50.096;14.458;2023-11-21T00:42:45;98916.28;;;12.97;59.14
82245;BME280;71849;50.096;14.458;2023-11-21T00:45:13;98911.72;;;12.76;59.58
82245;BME280;71849;50.096;14.458;2023-11-21T00:47:42;98900.75;;;13.03;59.08
82245;BME280;71849;50.096;14.458;2023-11-21T00:50:11;98899.69;;;12.77;59.96
82245;BME280;71849;50.096;14.458;2023-11-21T00:52:42;98897.97;;;12.98;59.61
82245;BME280;71849;50.096;14.458;2023-11-21T00:55:11;98898.72;;;12.88;59.96
82245;BME280;71849;50.096;14.458;2023-11-21T00:57:39;98901.50;;;12.98;59.96
82245;BME280;71849;50.096;14.458;2023-11-21T01:00:09;98893.25;;;12.88;59.96
82245;BME280;71849;50.096;14.458;2023-11-21T01:02:42;98897.66;;;12.68;60.69
82245;BME280;71849;50.096;14.458;2023-11-21T01:05:12;98898.78;;;12.67;60.87
82245;BME280;71849;50.096;14.458;2023-11-21T01:07:43;98902.09;;;12.74;60.63
82245;BME280;71849;50.096;14.458;2023-11-21T01:10:12;98908.75;;;12.83;60.29
82245;BME280;71849;50.096;14.458;2023-11-21T01:12:42;98903.56;;;12.54;61.46
82245;BME280;71849;50.096;14.458;2023-11-21T01:15:11;98916.03;;;12.72;60.89
82245;BME280;71849;50.096;14.458;2023-11-21T01:17:41;98916.84;;;12.73;60.93
82245;BME280;71849;50.096;14.458;2023-11-21T01:20:10;98916.38;;;12.81;60.73
82245;BME280;71849;50.096;14.458;2023-11-21T01:22:39;98906.44;;;12.96;60.25
82245;BME280;71849;50.096;14.458;2023-11-21T01:25:11;98906.28;;;12.81;60.50
82245;BME280;71849;50.096;14.458;2023-11-21T01:27:39;98908.91;;;12.71;61.11
82245;BME280;71849;50.096;14.458;2023-11-21T01:30:09;98908.09;;;12.97;60.23
82245;BME280;71849;50.096;14.458;2023-11-21T01:32:38;98908.09;;;12.97;59.90
82245;BME280;71849;50.096;14.458;2023-11-21T01:35:08;98903.75;;;12.75;60.70
82245;BME280;71849;50.096;14.458;2023-11-21T01:37:37;98906.59;;;12.85;60.52
82245;BME280;71849;50.096;14.458;2023-11-21T01:40:07;98911.16;;;13.06;59.92
82245;BME280;71849;50.096;14.458;2023-11-21T01:42:41;98908.31;;;13.23;58.98
82245;BME280;71849;50.096;14.458;2023-11-21T01:45:12;98915.84;;;13.10;59.56
82245;BME280;71849;50.096;14.458;2023-11-21T01:47:42;98911.09;;;13.28;59.06
82245;BME280;71849;50.096;14.458;2023-11-21T01:50:16;98929.97;;;13.02;59.77
82245;BME280;71849;50.096;14.458;2023-11-21T01:52:48;98922.50;;;12.93;59.63
82245;BME280;71849;50.096;14.458;2023-11-21T01:55:17;98920.28;;;12.90;59.98
82245;BME280;71849;50.096;14.458;2023-11-21T01:57:49;98921.00;;;12.80;60.34
82245;BME280;71849;50.096;14.458;2023-11-21T02:00:18;98922.06;;;13.01;60.13
82245;BME280;71849;50.096;14.458;2023-11-21T02:02:48;98921.63;;;12.87;60.25
82245;BME280;71849;50.096;14.458;2023-11-21T02:05:20;98924.25;;;13.04;59.69
82245;BME280;71849;50.096;14.458;2023-11-21T02:07:48;98924.94;;;13.16;59.71
82245;BME280;71849;50.096;14.458;2023-11-21T02:10:19;98922.25;;;13.21;58.98
82245;BME280;71849;50.096;14.458;2023-11-21T02:12:52;98917.50;;;13.11;59.69
82245;BME280;71849;50.096;14.458;2023-11-21T02:15:22;98920.34;;;13.22;59.78
82245;BME280;71849;50.096;14.458;2023-11-21T02:17:54;98917.69;;;13.05;60.18
82245;BME280;71849;50.096;14.458;2023-11-21T02:20:23;98918.91;;;12.87;60.48
82245;BME280;71849;50.096;14.458;2023-11-21T02:22:57;98912.66;;;12.65;60.98
82245;BME280;71849;50.096;14.458;2023-11-21T02:25:28;98913.66;;;12.54;61.85
82245;BME280;71849;50.096;14.458;2023-11-21T02:27:58;98913.38;;;12.55;61.41
82245;BME280;71849;50.096;14.458;2023-11-21T02:30:27;98911.78;;;12.86;60.94
82245;BME280;71849;50.096;14.458;2023-11-21T02:32:57;98914.06;;;12.94;60.38
82245;BME280;71849;50.096;14.458;2023-11-21T02:35:26;98918.94;;;12.92;60.69
82245;BME280;71849;50.096;14.458;2023-11-21T02:37:59;98919.72;;;13.14;60.13
82245;BME280;71849;50.096;14.458;2023-11-21T02:40:28;98915.47;;;13.02;60.05
82245;BME280;71849;50.096;14.458;2023-11-21T02:42:57;98913.41;;;13.09;60.07
82245;BME280;71849;50.096;14.458;2023-11-21T02:45:26;98910.75;;;13.19;59.75
82245;BME280;71849;50.096;14.458;2023-11-21T02:47:54;98914.63;;;12.96;59.81
82245;BME280;71849;50.096;14.458;2023-11-21T02:50:23;98919.72;;;12.88;60.01
82245;BME280;71849;50.096;14.458;2023-11-21T02:52:52;98907.78;;;12.94;60.13
82245;BME280;71849;50.096;14.458;2023-11-21T02:55:25;98912.75;;;13.02;60.06
82245;BME280;71849;50.096;14.458;2023-11-21T02:57:54;98902.97;;;13.06;60.13
82245;BME280;71849;50.096;14.458;2023-11-21T03:00:24;98904.75;;;12.95;59.92
82245;BME280;71849;50.096;14.458;2023-11-21T03:02:55;98907.03;;;13.03;60.08
82245;BME280;71849;50.096;14.458;2023-11-21T03:05:23;98904.47;;;13.19;59.29
82245;BME280;71849;50.096;14.458;2023-11-21T03:07:52;98908.38;;;12.74;60.58
82245;BME280;71849;50.096;14.458;2023-11-21T03:10:21;98911.78;;;12.86;60.39
82245;BME280;71849;50.096;14.458;2023-11-21T03:12:52;98908.19;;;12.81;60.59
82245;BME280;71849;50.096;14.458;2023-11-21T03:15:20;98904.69;;;12.85;60.59
82245;BME280;71849;50.096;14.458;2023-11-21T03:17:49;98910.91;;;12.81;60.60
82245;BME280;71849;50.096;14.458;2023-11-21T03:20:18;98912.75;;;12.70;60.71
82245;BME280;71849;50.096;14.458;2023-11-21T03:22:46;98908.31;;;12.64;61.07
82245;BME280;71849;50.096;14.458;2023-11-21T03:25:15;98907.13;;;12.82;60.27
82245;BME280;71849;50.096;14.458;2023-11-21T03:27:44;98914.38;;;12.98;59.83
82245;BME280;71849;50.096;14.458;2023-11-21T03:30:16;98910.44;;;12.89;60.33
82245;BME280;71849;50.096;14.458;2023-11-21T03:32:44;98912.00;;;12.80;60.41
82245;BME280;71849;50.096;14.458;2023-11-21T03:35:13;98914.00;;;12.89;59.93
82245;BME280;71849;50.096;14.458;2023-11-21T03:37:42;98923.53;;;12.87;60.21
82245;BME280;71849;50.096;14.458;2023-11-21T03:40:11;98922.16;;;12.84;60.07
82245;BME280;71849;50.096;14.458;2023-11-21T03:42:40;98929.47;;;12.79;59.70
82245;BME280;71849;50.096;14.458;2023-11-21T03:45:09;98926.53;;;12.85;60.06
82245;BME280;71849;50.096;14.458;2023-11-21T03:47:41;98929.31;;;12.90;59.77
82245;BME280;71849;50.096;14.458;2023-11-21T03:50:09;98918.38;;;12.90;59.87
82245;BME280;71849;50.096;14.458;2023-11-21T03:52:38;98921.25;;;13.05;59.34
82245;BME280;71849;50.096;14.458;2023-11-21T03:55:08;98927.41;;;12.64;60.77
82245;BME280;71849;50.096;14.458;2023-11-21T03:57:37;98930.03;;;12.54;60.88
82245;BME280;71849;50.096;14.458;2023-11-21T04:00:07;98928.50;;;12.63;60.61
82245;BME280;71849;50.096;14.458;2023-11-21T04:02:36;98933.28;;;12.78;60.19
82245;BME280;71849;50.096;14.458;2023-11-21T04:05:08;98941.47;;;12.78;60.08
82245;BME280;71849;50.096;14.458;2023-11-21T04:07:37;98941.31;;;12.89;59.26
82245;BME280;71849;50.096;14.458;2023-11-21T04:10:07;98931.38;;;12.78;59.53
82245;BME280;71849;50.096;14.458;2023-11-21T04:12:38;98929.00;;;12.60;60.32
82245;BME280;71849;50.096;14.458;2023-11-21T04:15:08;98932.25;;;12.57;60.12
82245;BME280;71849;50.096;14.458;2023-11-21T04:17:38;98928.22;;;11.94;61.59
82245;BME280;71849;50.096;14.458;2023-11-21T04:20:10;98931.44;;;12.35;61.21
82245;BME280;71849;50.096;14.458;2023-11-21T04:22:39;98934.81;;;12.69;59.94
82245;BME280;71849;50.096;14.458;2023-11-21T04:25:09;98942.53;;;12.77;59.67
82245;BME280;71849;50.096;14.458;2023-11-21T04:27:39;98951.00;;;12.75;59.52
82245;BME280;71849;50.096;14.458;2023-11-21T04:30:10;98938.94;;;12.71;59.44
82245;BME280;71849;50.096;14.458;2023-11-21T04:32:38;98952.53;;;12.66;59.80
82245;BME280;71849;50.096;14.458;2023-11-21T04:35:10;98957.38;;;12.37;60.58
82245;BME280;71849;50.096;14.458;2023-11-21T04:37:38;98945.56;;;12.53;60.13
82245;BME280;71849;50.096;14.458;2023-11-21T04:40:08;98947.28;;;12.59;59.97
82245;BME280;71849;50.096;14.458;2023-11-21T04:42:37;98946.44;;;12.86;59.23
82245;BME280;71849;50.096;14.458;2023-11-21T04:45:07;98952.38;;;12.78;59.31
82245;BME280;71849;50.096;14.458;2023-11-21T04:47:37;98946.56;;;12.42;60.25
82245;BME280;71849;50.096;14.458;2023-11-21T04:50:06;98952.00;;;12.64;59.88
82245;BME280;71849;50.096;14.458;2023-11-21T04:52:38;98955.31;;;12.71;59.71
82245;BME280;71849;50.096;14.458;2023-11-21T04:55:07;98952.00;;;12.42;60.57
82245;BME280;71849;50.096;14.458;2023-11-21T04:57:35;98956.84;;;12.62;60.02
82245;BME280;71849;50.096;14.458;2023-11-21T05:00:05;98955.06;;;12.24;60.89
82245;BME280;71849;50.096;14.458;2023-11-21T05:02:34;98956.19;;;12.28;60.65
82245;BME280;71849;50.096;14.458;2023-11-21T05:05:04;98967.03;;;12.23;61.15
82245;BME280;71849;50.096;14.458;2023-11-21T05:07:38;98958.63;;;12.25;60.94
82245;BME280;71849;50.096;14.458;2023-11-21T05:10:08;98957.97;;;12.39;60.38
82245;BME280;71849;50.096;14.458;2023-11-21T05:12:40;98953.66;;;12.22;60.66
82245;BME280;71849;50.096;14.458;2023-11-21T05:15:13;98959.81;;;12.34;60.42
82245;BME280;71849;50.096;14.458;2023-11-21T05:17:43;98962.34;;;12.40;60.29
82245;BME280;71849;50.096;14.458;2023-11-21T05:20:13;98961.25;;;12.20;60.71
82245;BME280;71849;50.096;14.458;2023-11-21T05:22:46;98964.06;;;12.25;60.83
82245;BME280;71849;50.096;14.458;2023-11-21T05:25:15;98964.25;;;12.18;61.05
82245;BME280;71849;50.096;14.458;2023-11-21T05:27:44;98970.19;;;11.93;61.77
82245;BME280;71849;50.096;14.458;2023-11-21T05:30:13;98954.47;;;12.22;61.25
82245;BME280;71849;50.096;14.458;2023-11-21T05:32:42;98968.06;;;12.39;60.41
82245;BME280;71849;50.096;14.458;2023-11-21T05:35:13;98973.34;;;12.45;60.27
82245;BME280;71849;50.096;14.458;2023-11-21T05:37:42;98973.19;;;12.35;60.48
82245;BME280;71849;50.096;14.458;2023-11-21T05:40:16;98984.00;;;11.53;63.13
82245;BME280;71849;50.096;14.458;2023-11-21T05:42:47;98984.66;;;11.44;63.49
82245;BME280;71849;50.096;14.458;2023-11-21T05:45:16;98991.34;;;11.53;63.42
82245;BME280;71849;50.096;14.458;2023-11-21T05:47:47;98982.09;;;11.87;62.21
82245;BME280;71849;50.096;14.458;2023-11-21T05:50:19;98976.81;;;11.97;61.87
82245;BME280;71849;50.096;14.458;2023-11-21T05:52:48;98992.03;;;12.15;61.14
82245;BME280;71849;50.096;14.458;2023-11-21T05:55:22;98981.00;;;12.27;60.71
82245;BME280;71849;50.096;14.458;2023-11-21T05:57:51;98979.25;;;11.99;61.17
82245;BME280;71849;50.096;14.458;2023-11-21T06:00:20;98991.22;;;11.76;61.93
82245;BME280;71849;50.096;14.458;2023-11-21T06:02:52;98986.28;;;11.95;61.47
82245;BME280;71849;50.096;14.458;2023-11-21T06:05:22;98990.00;;;11.89;61.33
82245;BME280;71849;50.096;14.458;2023-11-21T06:07:52;98992.03;;;12.15;60.90
82245;BME280;71849;50.096;14.458;2023-11-21T06:10:27;98997.41;;;12.10;60.82
82245;BME280;71849;50.096;14.458;2023-11-21T06:12:55;98992.19;;;11.87;61.30
82245;BME280;71849;50.096;14.458;2023-11-21T06:15:24;98999.53;;;12.25;60.67
82245;BME280;71849;50.096;14.458;2023-11-21T06:17:53;98998.72;;;12.24;60.49
82245;BME280;71849;50.096;14.458;2023-11-21T06:20:22;99002.75;;;11.83;61.49
82245;BME280;71849;50.096;14.458;2023-11-21T06:22:51;98996.84;;;11.70;62.11
82245;BME280;71849;50.096;14.458;2023-11-21T06:25:20;99006.31;;;12.00;61.38
82245;BME280;71849;50.096;14.458;2023-11-21T06:27:51;99011.31;;;11.92;61.45
82245;BME280;71849;50.096;14.458;2023-11-21T06:30:20;99018.34;;;12.04;61.08
82245;BME280;71849;50.096;14.458;2023-11-21T06:32:48;99015.88;;;12.03;61.17
82245;BME280;71849;50.096;14.458;2023-11-21T06:35:18;99017.88;;;11.91;61.21
82245;BME280;71849;50.096;14.458;2023-11-21T06:37:46;99024.66;;;11.88;61.64
82245;BME280;71849;50.096;14.458;2023-11-21T06:40:17;99024.78;;;12.15;60.64
82245;BME280;71849;50.096;14.458;2023-11-21T06:42:47;99028.75;;;12.07;60.86
82245;BME280;71849;50.096;14.458;2023-11-21T06:45:20;99029.72;;;12.18;60.76
82245;BME280;71849;50.096;14.458;2023-11-21T06:47:48;99040.47;;;12.25;60.38
82245;BME280;71849;50.096;14.458;2023-11-21T06:50:17;99045.50;;;12.16;60.77
82245;BME280;71849;50.096;14.458;2023-11-21T06:52:46;99043.94;;;12.20;60.67
82245;BME280;71849;50.096;14.458;2023-11-21T06:55:15;99042.75;;;11.94;61.50
82245;BME280;71849;50.096;14.458;2023-11-21T06:57:44;99038.69;;;11.80;61.98
82245;BME280;71849;50.096;14.458;2023-11-21T07:00:20;99032.91;;;11.60;62.40
82245;BME280;71849;50.096;14.458;2023-11-21T07:02:48;99038.53;;;12.03;61.25
82245;BME280;71849;50.096;14.458;2023-11-21T07:05:20;99040.56;;;12.13;61.07
82245;BME280;71849;50.096;14.458;2023-11-21T07:07:50;99033.53;;;12.17;60.88
82245;BME280;71849;50.096;14.458;2023-11-21T07:10:19;99043.94;;;12.20;60.75
82245;BME280;71849;50.096;14.458;2023-11-21T07:12:48;99051.22;;;12.15;60.40
82245;BME280;71849;50.096;14.458;2023-11-21T07:15:20;99038.31;;;11.88;61.21
82245;BME280;71849;50.096;14.458;2023-11-21T07:17:49;99038.75;;;12.02;60.98
82245;BME280;71849;50.096;14.458;2023-11-21T07:20:19;99036.91;;;12.24;60.52
82245;BME280;71849;50.096;14.458;2023-11-21T07:22:48;99038.38;;;12.53;59.56
82245;BME280;71849;50.096;14.458;2023-11-21T07:25:17;99041.81;;;12.66;59.23
82245;BME280;71849;50.096;14.458;2023-11-21T07:27:45;99039.03;;;12.82;58.43
82245;BME280;71849;50.096;14.458;2023-11-21T07:30:15;99049.94;;;12.60;59.28
82245;BME280;71849;50.096;14.458;2023-11-21T07:32:46;99048.16;;;12.71;59.20
82245;BME280;71849;50.096;14.458;2023-11-21T07:35:15;99057.53;;;12.58;59.38
82245;BME280;71849;50.096;14.458;2023-11-21T07:37:44;99051.47;;;12.73;58.99
82245;BME280;71849;50.096;14.458;2023-11-21T07:40:15;99056.22;;;12.83;58.83
82245;BME280;71849;50.096;14.458;2023-11-21T07:42:47;99050.22;;;12.86;58.67
82245;BME280;71849;50.096;14.458;2023-11-21T07:45:16;99051.75;;;12.98;58.21
82245;BME280;71849;50.096;14.458;2023-11-21T07:47:48;99053.28;;;12.89;58.39
82245;BME280;71849;50.096;14.458;2023-11-21T07:50:17;99055.66;;;12.81;58.07
82245;BME280;71849;50.096;14.458;2023-11-21T07:52:46;99058.00;;;12.94;57.97
82245;BME280;71849;50.096;14.458;2023-11-21T07:55:15;99062.91;;;12.92;58.35
82245;BME280;71849;50.096;14.458;2023-11-21T07:57:44;99062.44;;;12.78;58.42
82245;BME280;71849;50.096;14.458;2023-11-21T08:00:13;99058.84;;;12.73;58.40
82245;BME280;71849;50.096;14.458;2023-11-21T08:02:42;99059.53;;;12.85;58.00
82245;BME280;71849;50.096;14.458;2023-11-21T08:05:14;99058.56;;;12.52;58.64
82245;BME280;71849;50.096;14.458;2023-11-21T08:07:43;99055.78;;;12.47;58.81
82245;BME280;71849;50.096;14.458;2023-11-21T08:10:12;99062.59;;;12.67;57.83
82245;BME280;71849;50.096;14.458;2023-11-21T08:12:41;99060.09;;;12.65;58.00
82245;BME280;71849;50.096;14.458;2023-11-21T08:15:10;99058.38;;;12.81;57.32
82245;BME280;71849;50.096;14.458;2023-11-21T08:17:41;99070.19;;;12.86;57.02
82245;BME280;71849;50.096;14.458;2023-11-21T08:20:14;99069.25;;;12.97;56.66
82245;BME280;71849;50.096;14.458;2023-11-21T08:22:44;99064.72;;;12.86;56.77
82245;BME280;71849;50.096;14.458;2023-11-21T08:25:13;99083.22;;;12.79;57.22
82245;BME280;71849;50.096;14.458;2023-11-21T08:27:43;99071.47;;;13.00;56.51
82245;BME280;71849;50.096;14.458;2023-11-21T08:30:12;99078.50;;;13.18;56.23
82245;BME280;71849;50.096;14.458;2023-11-21T08:32:42;99076.41;;;13.03;56.75
82245;BME280;71849;50.096;14.458;2023-11-21T08:35:11;99078.84;;;13.22;56.60
82245;BME280;71849;50.096;14.458;2023-11-21T08:37:44;99079.19;;;12.65;57.60
82245;BME280;71849;50.096;14.458;2023-11-21T08:40:13;99083.19;;;12.36;58.88
82245;BME280;71849;50.096;14.458;2023-11-21T08:42:42;99080.47;;;12.19;58.64
82245;BME280;71849;50.096;14.458;2023-11-21T08:45:11;99088.25;;;12.27;59.06
82245;BME280;71849;50.096;14.458;2023-11-21T08:47:40;99083.66;;;12.71;57.67
82245;BME280;71849;50.096;14.458;2023-11-21T08:50:11;99086.84;;;12.63;57.57
82245;BME280;71849;50.096;14.458;2023-11-21T08:52:47;99084.16;;;12.68;57.23
82245;BME280;71849;50.096;14.458;2023-11-21T08:55:25;99084.34;;;13.05;56.44
82245;BME280;71849;50.096;14.458;2023-11-21T08:57:56;99106.59;;;12.70;57.29
82245;BME280;71849;50.096;14.458;2023-11-21T09:00:31;99104.28;;;12.84;57.09
82245;BME280;71849;50.096;14.458;2023-11-21T09:03:27;99100.69;;;12.78;57.02
82245;BME280;71849;50.096;14.458;2023-11-21T09:06:00;99103.56;;;12.88;57.30
82245;BME280;71849;50.096;14.458;2023-11-21T09:08:41;99100.72;;;13.05;56.51
82245;BME280;71849;50.096;14.458;2023-11-21T09:11:11;99109.81;;;12.89;56.74
82245;BME280;71849;50.096;14.458;2023-11-21T09:13:39;99111.56;;;12.95;56.94
82245;BME280;71849;50.096;14.458;2023-11-21T09:16:08;99107.75;;;13.18;56.23
82245;BME280;71849;50.096;14.458;2023-11-21T09:18:37;99124.13;;;12.96;57.01
82245;BME280;71849;50.096;14.458;2023-11-21T09:21:06;99114.56;;;12.55;57.56
82245;BME280;71849;50.096;14.458;2023-11-21T09:23:38;99117.44;;;12.65;57.60
82245;BME280;71849;50.096;14.458;2023-11-21T09:26:06;99125.50;;;12.77;57.25
82245;BME280;71849;50.096;14.458;2023-11-21T09:28:35;99114.28;;;12.95;56.88
82245;BME280;71849;50.096;14.458;2023-11-21T09:31:05;99116.41;;;13.09;56.37
82245;BME280;71849;50.096;14.458;2023-11-21T09:33:35;99124.94;;;12.75;56.51
82245;BME280;71849;50.096;14.458;2023-11-21T09:36:04;99132.03;;;12.54;57.97
82245;BME280;71849;50.096;14.458;2023-11-21T09:38:34;99136.88;;;12.69;57.50
82245;BME280;71849;50.096;14.458;2023-11-21T09:41:11;99134.53;;;12.77;56.95
82245;BME280;71849;50.096;14.458;2023-11-21T09:43:44;99136.34;;;12.72;56.92
82245;BME280;71849;50.096;14.458;2023-11-21T09:46:15;99135.13;;;12.79;56.85
82245;BME280;71849;50.096;14.458;2023-11-21T09:48:49;99132.00;;;12.92;57.00
82245;BME280;71849;50.096;14.458;2023-11-21T09:51:19;99140.88;;;13.04;56.33
82245;BME280;71849;50.096;14.458;2023-11-21T09:53:50;99137.34;;;12.82;56.67
82245;BME280;71849;50.096;14.458;2023-11-21T09:56:23;99146.66;;;12.86;56.78
82245;BME280;71849;50.096;14.458;2023-11-21T09:58:55;99147.31;;;12.93;56.13
82245;BME280;71849;50.096;14.458;2023-11-21T10:01:29;99136.59;;;13.08;55.17
82245;BME280;71849;50.096;14.458;2023-11-21T10:03:59;99132.84;;;12.54;56.80
82245;BME280;71849;50.096;14.458;2023-11-21T10:06:28;99135.72;;;12.86;55.93
82245;BME280;71849;50.096;14.458;2023-11-21T10:08:59;99138.09;;;12.78;55.79
82245;BME280;71849;50.096;14.458;2023-11-21T10:11:31;99139.66;;;12.52;56.53
82245;BME280;71849;50.096;14.458;2023-11-21T10:14:01;99144.94;;;13.02;55.09
82245;BME280;71849;50.096;14.458;2023-11-21T10:16:31;99146.34;;;12.83;55.16
82245;BME280;71849;50.096;14.458;2023-11-21T10:18:59;99139.47;;;12.80;54.76
82245;BME280;71849;50.096;14.458;2023-11-21T10:21:28;99136.66;;;12.92;54.62
82245;BME280;71849;50.096;14.458;2023-11-21T10:23:58;99137.41;;;12.87;54.58
82245;BME280;71849;50.096;14.458;2023-11-21T10:26:33;99137.25;;;12.99;53.35
82245;BME280;71849;50.096;14.458;2023-11-21T10:29:02;99132.31;;;12.96;53.36
82245;BME280;71849;50.096;14.458;2023-11-21T10:31:32;99140.66;;;12.46;53.84
82245;BME280;71849;50.096;14.458;2023-11-21T10:34:14;99130.06;;;12.71;53.61
82245;BME280;71849;50.096;14.458;2023-11-21T10:36:44;99134.13;;;12.69;53.00
82245;BME280;71849;50.096;14.458;2023-11-21T10:39:14;99135.84;;;12.75;53.12
82245;BME280;71849;50.096;14.458;2023-11-21T10:41:48;99135.19;;;12.68;53.52
82245;BME280;71849;50.096;14.458;2023-11-21T10:44:18;99133.31;;;12.90;53.12
82245;BME280;71849;50.096;14.458;2023-11-21T10:46:50;99138.81;;;13.11;52.97
82245;BME280;71849;50.096;14.458;2023-11-21T10:49:22;99126.81;;;13.12;52.07
82245;BME280;71849;50.096;14.458;2023-11-21T10:51:51;99141.44;;;12.63;53.56
82245;BME280;71849;50.096;14.458;2023-11-21T10:54:20;99145.31;;;12.89;52.45
82245;BME280;71849;50.096;14.458;2023-11-21T10:56:55;99142.06;;;13.08;52.64
82245;BME280;71849;50.096;14.458;2023-11-21T10:59:29;99134.03;;;13.24;51.75
82245;BME280;71849;50.096;14.458;2023-11-21T11:01:58;99128.09;;;13.53;50.89
82245;BME280;71849;50.096;14.458;2023-11-21T11:04:28;99127.56;;;13.56;51.06
82245;BME280;71849;50.096;14.458;2023-11-21T11:06:58;99129.47;;;13.83;50.51
82245;BME280;71849;50.096;14.458;2023-11-21T11:09:30;99125.25;;;13.43;51.14
82245;BME280;71849;50.096;14.458;2023-11-21T11:12:02;99128.03;;;13.22;51.72
82245;BME280;71849;50.096;14.458;2023-11-21T11:14:32;99119.03;;;13.04;52.37
82245;BME280;71849;50.096;14.458;2023-11-21T11:17:01;99117.31;;;13.42;51.45
82245;BME280;71849;50.096;14.458;2023-11-21T11:19:31;99114.72;;;13.30;51.00
82245;BME280;71849;50.096;14.458;2023-11-21T11:22:08;99113.97;;;13.61;51.36
82245;BME280;71849;50.096;14.458;2023-11-21T11:25:21;99120.50;;;13.60;51.92
82245;BME280;71849;50.096;14.458;2023-11-21T11:28:02;99117.69;;;14.14;51.12
82245;BME280;71849;50.096;14.458;2023-11-21T11:30:41;99117.28;;;13.68;52.50
82245;BME280;71849;50.096;14.458;2023-11-21T11:33:23;99118.53;;;14.19;50.52
82245;BME280;71849;50.096;14.458;2023-11-21T11:36:02;99107.66;;;13.61;51.50
82245;BME280;71849;50.096;14.458;2023-11-21T11:38:34;99116.63;;;13.56;51.06
82245;BME280;71849;50.096;14.458;2023-11-21T11:41:04;99122.16;;;13.61;51.28
82245;BME280;71849;50.096;14.458;2023-11-21T11:43:37;99121.84;;;13.58;51.46
82245;BME280;71849;50.096;14.458;2023-11-21T11:46:10;99114.06;;;13.45;50.50
82245;BME280;71849;50.096;14.458;2023-11-21T11:48:40;99120.91;;;13.21;50.05
82245;BME280;71849;50.096;14.458;2023-11-21T11:51:12;99120.38;;;13.24;49.68
82245;BME280;71849;50.096;14.458;2023-11-21T11:53:46;99121.22;;;13.24;50.69
82245;BME280;71849;50.096;14.458;2023-11-21T11:56:26;99125.41;;;12.88;51.20
82245;BME280;71849;50.096;14.458;2023-11-21T11:59:03;99133.13;;;12.96;51.59
82245;BME280;71849;50.096;14.458;2023-11-21T12:01:35;99130.69;;;12.95;49.67
82245;BME280;71849;50.096;14.458;2023-11-21T12:04:25;99117.53;;;13.13;46.54
82245;BME280;71849;50.096;14.458;2023-11-21T12:07:05;99124.84;;;13.56;45.50
82245;BME280;71849;50.096;14.458;2023-11-21T12:09:33;99130.41;;;13.40;47.16
82245;BME280;71849;50.096;14.458;2023-11-21T12:12:03;99133.50;;;13.05;49.27
82245;BME280;71849;50.096;14.458;2023-11-21T12:14:36;99132.16;;;12.86;50.20
82245;BME280;71849;50.096;14.458;2023-11-21T12:17:05;99139.44;;;12.97;50.54
82245;BME280;71849;50.096;14.458;2023-11-21T12:19:36;99122.72;;;13.37;49.31
82245;BME280;71849;50.096;14.458;2023-11-21T12:22:09;99126.72;;;13.07;49.97
82245;BME280;71849;50.096;14.458;2023-11-21T12:24:38;99137.75;;;13.12;50.52
82245;BME280;71849;50.096;14.458;2023-11-21T12:27:06;99143.31;;;12.79;51.91
82245;BME280;71849;50.096;14.458;2023-11-21T12:29:37;99149.91;;;12.83;52.17
82245;BME280;71849;50.096;14.458;2023-11-21T12:32:14;99143.06;;;12.42;53.58
82245;BME280;71849;50.096;14.458;2023-11-21T12:34:44;99144.25;;;12.90;52.53
82245;BME280;71849;50.096;14.458;2023-11-21T12:37:12;99151.50;;;12.79;53.49
82245;BME280;71849;50.096;14.458;2023-11-21T12:39:41;99152.59;;;12.61;53.87
82245;BME280;71849;50.096;14.458;2023-11-21T12:42:10;99144.91;;;12.58;54.10
82245;BME280;71849;50.096;14.458;2023-11-21T12:44:42;99151.34;;;12.31;54.93
82245;BME280;71849;50.096;14.458;2023-11-21T12:47:16;99142.28;;;12.47;54.90
82245;BME280;71849;50.096;14.458;2023-11-21T12:49:47;99144.56;;;12.72;54.64
82245;BME280;71849;50.096;14.458;2023-11-21T12:52:15;99140.31;;;12.81;54.58
82245;BME280;71849;50.096;14.458;2023-11-21T12:54:44;99146.75;;;12.91;54.35
82245;BME280;71849;50.096;14.458;2023-11-21T12:57:14;99147.47;;;12.65;55.08
82245;BME280;71849;50.096;14.458;2023-11-21T12:59:48;99152.19;;;12.53;55.65
82245;BME280;71849;50.096;14.458;2023-11-21T13:02:21;99155.78;;;12.92;54.62
82245;BME280;71849;50.096;14.458;2023-11-21T13:04:52;99151.50;;;13.01;54.87
82245;BME280;71849;50.096;14.458;2023-11-21T13:07:23;99162.44;;;12.63;56.24